Yanceyville, North Carolina
Current Conditions -  °F | °C
As of 9:53 PM on Friday 21 Nov 2014 (Local Time) from KDAN Reporting Station
Clear Clear  
Wind Chill: 25°   Ceiling: Unl
Heat Index: 25°   Visibility: 10mi
Dew Point: 15°   Wind: 0mph
Humidity: 66%   Direction: NA
Pressure: 30.53"   Gusts: NA
Location:  36.4°N, 79.34°W
Report Text: KDAN 220253Z AUTO 00000KT 10SM CLR M04/M09 A3053 RMK AO2 SLP339 T10391094 53010
Loading
Personal Weather Stations






























Interactive Weather Map New forecast layout! Learn more

10-Day Weather Forecast

Advertisements
Track Severe Weather on mobile